createdAt,value
2022-12-04T00:01:28.385Z,98542.56
2022-12-04T00:04:00.484Z,98554.00
2022-12-04T00:06:29.032Z,98558.75
2022-12-04T00:08:57.547Z,98560.31
2022-12-04T00:11:28.623Z,98557.50
2022-12-04T00:14:04.591Z,98562.53
2022-12-04T00:16:36.005Z,98560.94
2022-12-04T00:19:05.296Z,98561.97
2022-12-04T00:21:33.656Z,98554.31
2022-12-04T00:24:02.422Z,98555.97
2022-12-04T00:26:33.619Z,98556.47
2022-12-04T00:29:02.111Z,98558.88
2022-12-04T00:31:31.039Z,98567.03
2022-12-04T00:34:00.348Z,98569.03
2022-12-04T00:36:29.415Z,98573.16
2022-12-04T00:38:59.847Z,98570.19
2022-12-04T00:41:29.142Z,98571.66
2022-12-04T00:43:57.587Z,98566.84
2022-12-04T00:46:26.102Z,98573.31
2022-12-04T00:48:54.555Z,98575.22
2022-12-04T00:51:24.417Z,98570.34
2022-12-04T00:53:52.965Z,98567.38
2022-12-04T00:56:26.435Z,98567.56
2022-12-04T00:58:58.402Z,98564.41
2022-12-04T01:01:28.620Z,98563.91
2022-12-04T01:03:57.185Z,98566.78
2022-12-04T01:06:30.305Z,98570.50
2022-12-04T01:08:59.474Z,98570.59
2022-12-04T01:11:28.920Z,98562.44
2022-12-04T01:13:58.379Z,98570.56
2022-12-04T01:16:29.601Z,98567.44
2022-12-04T01:18:58.236Z,98570.06
2022-12-04T01:21:27.642Z,98574.03
2022-12-04T01:23:56.567Z,98566.63
2022-12-04T01:26:25.342Z,98567.06
2022-12-04T01:28:53.723Z,98567.81
2022-12-04T01:31:22.474Z,98569.22
2022-12-04T01:33:51.258Z,98564.13
2022-12-04T01:36:21.627Z,98559.38
2022-12-04T01:38:50.143Z,98558.16
2022-12-04T01:41:21.175Z,98562.13
2022-12-04T01:44:12.600Z,98573.25
2022-12-04T01:46:41.508Z,98565.06
2022-12-04T01:49:16.105Z,98561.22
2022-12-04T01:51:50.692Z,98568.06
2022-12-04T01:54:29.035Z,98558.56
2022-12-04T01:57:09.695Z,98550.53
2022-12-04T01:59:41.169Z,98553.59
2022-12-04T02:02:15.744Z,98558.56
2022-12-04T02:04:44.148Z,98547.69
2022-12-04T02:07:13.167Z,98552.19
2022-12-04T02:09:41.655Z,98554.44
2022-12-04T02:12:38.573Z,98546.38
2022-12-04T02:15:12.807Z,98541.06
2022-12-04T02:18:06.422Z,98539.88
2022-12-04T02:20:37.647Z,98558.31
2022-12-04T02:23:36.843Z,98544.78
2022-12-04T02:26:13.884Z,98547.75
2022-12-04T02:28:54.096Z,98531.38
2022-12-04T02:31:24.096Z,98533.06
2022-12-04T02:34:15.136Z,98527.13
2022-12-04T02:37:05.098Z,98537.56
2022-12-04T02:39:36.849Z,98541.22
2022-12-04T02:42:17.800Z,98529.19
2022-12-04T02:44:49.828Z,98520.47
2022-12-04T02:47:20.482Z,98523.50
2022-12-04T02:50:01.671Z,98534.47
2022-12-04T02:52:32.676Z,98538.19
2022-12-04T02:55:08.331Z,98531.34
2022-12-04T02:57:40.892Z,98534.91
2022-12-04T03:00:10.204Z,98530.13
2022-12-04T03:02:47.547Z,98538.28
2022-12-04T03:05:18.960Z,98531.06
2022-12-04T03:07:52.325Z,98530.47
2022-12-04T03:10:28.341Z,98516.53
2022-12-04T03:13:12.707Z,98519.25
2022-12-04T03:15:43.630Z,98517.88
2022-12-04T03:18:25.101Z,98515.75
2022-12-04T03:20:56.882Z,98518.44
2022-12-04T03:23:29.138Z,98519.41
2022-12-04T03:26:13.007Z,98508.81
2022-12-04T03:29:09.633Z,98511.94
2022-12-04T03:31:47.769Z,98514.69
2022-12-04T03:34:22.147Z,98512.59
2022-12-04T03:36:54.253Z,98517.94
2022-12-04T03:39:58.432Z,98504.34
2022-12-04T03:42:30.324Z,98507.72
2022-12-04T03:45:02.927Z,98504.63
2022-12-04T03:47:59.645Z,98500.19
2022-12-04T03:50:44.502Z,98493.53
2022-12-04T03:53:39.986Z,98505.66
2022-12-04T03:56:24.050Z,98507.00
2022-12-04T03:58:58.730Z,98505.53
2022-12-04T04:01:33.920Z,98513.09
2022-12-04T04:04:02.392Z,98511.09
2022-12-04T04:06:38.352Z,98505.78
2022-12-04T04:09:13.706Z,98504.84
2022-12-04T04:11:48.913Z,98513.44
2022-12-04T04:14:44.827Z,98507.56
2022-12-04T04:17:38.152Z,98494.56
2022-12-04T04:20:32.281Z,98504.34
2022-12-04T04:23:19.765Z,98510.50
2022-12-04T04:25:48.220Z,98512.84
2022-12-04T04:28:36.090Z,98505.41
2022-12-04T04:31:28.413Z,98507.03
2022-12-04T04:34:16.699Z,98502.63
2022-12-04T04:36:55.313Z,98504.25
2022-12-04T04:39:41.895Z,98508.25
2022-12-04T04:42:22.886Z,98505.94
2022-12-04T04:45:30.057Z,98505.22
2022-12-04T04:48:20.749Z,98501.97
2022-12-04T04:50:49.747Z,98504.38
2022-12-04T04:53:20.878Z,98506.00
2022-12-04T04:55:50.557Z,98501.22
2022-12-04T04:58:19.808Z,98506.78
2022-12-04T05:01:09.972Z,98503.56
2022-12-04T05:03:38.448Z,98517.22
2022-12-04T05:06:06.964Z,98513.59
2022-12-04T05:08:36.197Z,98513.94
2022-12-04T05:11:04.746Z,98523.25
2022-12-04T05:13:33.839Z,98526.84
2022-12-04T05:16:03.984Z,98521.09
2022-12-04T05:18:32.646Z,98515.41
2022-12-04T05:21:08.831Z,98518.63
2022-12-04T05:23:37.188Z,98510.28
2022-12-04T05:26:06.414Z,98512.75
2022-12-04T05:28:34.793Z,98516.06
2022-12-04T05:31:03.736Z,98521.34
2022-12-04T05:33:32.079Z,98532.53
2022-12-04T05:36:02.466Z,98533.09
2022-12-04T05:38:31.543Z,98523.22
2022-12-04T05:41:01.324Z,98528.50
2022-12-04T05:43:29.792Z,98534.94
2022-12-04T05:46:05.736Z,98534.94
2022-12-04T05:48:35.100Z,98543.59
2022-12-04T05:51:09.551Z,98539.34
2022-12-04T05:53:38.220Z,98546.50
2022-12-04T05:56:07.722Z,98543.00
2022-12-04T05:58:36.799Z,98536.63
2022-12-04T06:01:15.805Z,98537.03
2022-12-04T06:03:44.330Z,98550.13
2022-12-04T06:06:38.967Z,98550.84
2022-12-04T06:09:07.929Z,98547.22
2022-12-04T06:11:37.850Z,98548.06
2022-12-04T06:14:07.588Z,98553.50
2022-12-04T06:16:41.055Z,98557.75
2022-12-04T06:19:17.244Z,98557.13
2022-12-04T06:21:47.356Z,98554.88
2022-12-04T06:24:24.564Z,98554.91
2022-12-04T06:27:26.319Z,98552.03
2022-12-04T06:29:45.642Z,98557.75
2022-12-04T06:32:17.955Z,98561.25
2022-12-04T06:34:53.564Z,98562.97
2022-12-04T06:37:24.390Z,98557.00
2022-12-04T06:39:53.103Z,98555.38
2022-12-04T06:42:21.593Z,98559.47
2022-12-04T06:44:49.972Z,98559.88
2022-12-04T06:47:18.437Z,98571.66
2022-12-04T06:49:50.091Z,98559.25
2022-12-04T06:52:18.666Z,98568.63
2022-12-04T06:54:47.239Z,98557.47
2022-12-04T06:57:16.281Z,98564.78
2022-12-04T06:59:44.719Z,98562.25
2022-12-04T07:02:13.267Z,98563.66
2022-12-04T07:04:41.675Z,98563.34
2022-12-04T07:07:10.595Z,98566.03
2022-12-04T07:09:39.602Z,98555.84
2022-12-04T07:12:08.093Z,98554.19
2022-12-04T07:14:36.561Z,98562.13
2022-12-04T07:17:05.157Z,98573.22
2022-12-04T07:19:33.511Z,98568.41
2022-12-04T07:22:02.009Z,98568.19
2022-12-04T07:24:30.427Z,98568.44
2022-12-04T07:26:58.870Z,98557.66
2022-12-04T07:29:27.385Z,98555.81
2022-12-04T07:31:55.892Z,98567.47
2022-12-04T07:34:24.540Z,98561.72
2022-12-04T07:36:52.996Z,98571.00
2022-12-04T07:39:21.459Z,98573.47
2022-12-04T07:41:49.995Z,98575.59
2022-12-04T07:44:19.961Z,98579.44
2022-12-04T07:46:48.924Z,98573.56
2022-12-04T07:49:17.378Z,98569.25
2022-12-04T07:51:45.744Z,98577.94
2022-12-04T07:54:14.236Z,98565.78
2022-12-04T07:56:42.683Z,98586.66
2022-12-04T07:59:11.736Z,98573.75
2022-12-04T08:01:40.726Z,98576.44
2022-12-04T08:04:10.894Z,98583.22
2022-12-04T08:06:39.976Z,98581.03
2022-12-04T08:09:10.260Z,98576.84
2022-12-04T08:11:39.571Z,98571.41
2022-12-04T08:14:09.281Z,98570.41
2022-12-04T08:16:37.818Z,98580.00
2022-12-04T08:19:06.516Z,98571.78
2022-12-04T08:21:35.006Z,98570.47
2022-12-04T08:24:03.871Z,98570.22
2022-12-04T08:26:34.037Z,98576.63
2022-12-04T08:29:03.378Z,98586.44
2022-12-04T08:31:35.080Z,98575.78
2022-12-04T08:34:05.420Z,98568.22
2022-12-04T08:36:34.500Z,98570.94
2022-12-04T08:39:03.969Z,98563.75
2022-12-04T08:41:33.205Z,98561.38
2022-12-04T08:44:02.254Z,98557.69
2022-12-04T08:46:30.720Z,98562.25
2022-12-04T08:48:59.596Z,98558.25
2022-12-04T08:51:30.235Z,98557.06
2022-12-04T08:54:01.026Z,98560.53
2022-12-04T08:56:30.312Z,98550.09
2022-12-04T08:58:59.124Z,98538.88
2022-12-04T09:01:28.148Z,98545.47
2022-12-04T09:03:57.167Z,98550.28
2022-12-04T09:06:26.808Z,98547.16
2022-12-04T09:08:56.163Z,98549.50
2022-12-04T09:11:26.344Z,98534.84
2022-12-04T09:13:56.774Z,98534.16
2022-12-04T09:16:26.093Z,98533.16
2022-12-04T09:18:55.649Z,98532.69
2022-12-04T09:21:24.822Z,98525.63
2022-12-04T09:23:53.300Z,98524.53
2022-12-04T09:26:30.694Z,98532.19
2022-12-04T09:29:00.720Z,98523.38
2022-12-04T09:31:30.287Z,98527.72
2022-12-04T09:34:00.223Z,98519.38
2022-12-04T09:36:29.842Z,98521.81
2022-12-04T09:38:59.152Z,98527.78
2022-12-04T09:41:41.694Z,98523.69
2022-12-04T09:44:44.053Z,98509.81
2022-12-04T09:47:26.294Z,98508.19
2022-12-04T09:50:02.262Z,98494.22
2022-12-04T09:52:43.016Z,98490.16
2022-12-04T09:55:27.947Z,98497.66
2022-12-04T09:58:02.008Z,98486.94
2022-12-04T10:00:31.889Z,98488.69
2022-12-04T10:03:06.158Z,98489.31
2022-12-04T10:05:43.054Z,98492.69
2022-12-04T10:08:43.850Z,98472.28
2022-12-04T10:11:27.713Z,98469.06
2022-12-04T10:14:02.734Z,98472.16
2022-12-04T10:16:34.697Z,98467.50
2022-12-04T10:19:14.830Z,98474.72
2022-12-04T10:22:13.041Z,98453.09
2022-12-04T10:25:12.456Z,98453.44
2022-12-04T10:27:58.042Z,98443.09
2022-12-04T10:30:27.987Z,98440.75
2022-12-04T10:33:01.942Z,98436.81
2022-12-04T10:35:33.216Z,98423.47
2022-12-04T10:38:07.061Z,98424.84
2022-12-04T10:40:47.669Z,98418.13
2022-12-04T10:43:37.164Z,98415.44
2022-12-04T10:46:06.348Z,98404.22
2022-12-04T10:48:40.167Z,98404.44
2022-12-04T10:51:20.185Z,98421.69
2022-12-04T10:53:50.295Z,98423.41
2022-12-04T10:56:26.300Z,98409.81
2022-12-04T10:59:01.217Z,98399.72
2022-12-04T11:01:31.773Z,98392.69
2022-12-04T11:04:09.174Z,98402.06
2022-12-04T11:06:38.915Z,98393.53
2022-12-04T11:09:07.852Z,98390.06
2022-12-04T11:11:36.811Z,98382.78
2022-12-04T11:14:15.963Z,98381.56
2022-12-04T11:16:46.321Z,98378.97
2022-12-04T11:19:35.879Z,98395.56
2022-12-04T11:22:18.575Z,98387.16
2022-12-04T11:24:51.500Z,98380.50
2022-12-04T11:27:32.074Z,98381.81
2022-12-04T11:30:11.791Z,98382.34
2022-12-04T11:32:42.429Z,98384.34
2022-12-04T11:35:17.881Z,98400.88
2022-12-04T11:37:54.951Z,98399.28
2022-12-04T11:40:23.939Z,98397.47
2022-12-04T11:43:15.391Z,98398.75
2022-12-04T11:46:03.735Z,98398.16
2022-12-04T11:48:32.781Z,98386.59
2022-12-04T11:51:34.780Z,98395.00
2022-12-04T11:54:17.258Z,98389.47
2022-12-04T11:56:51.646Z,98387.81
2022-12-04T11:59:47.860Z,98387.81
2022-12-04T12:02:32.041Z,98389.72
2022-12-04T12:05:19.448Z,98392.41
2022-12-04T12:08:09.719Z,98399.78
2022-12-04T12:11:03.437Z,98403.94
2022-12-04T12:13:50.621Z,98379.56
2022-12-04T12:19:55.738Z,98392.72
2022-12-04T12:22:39.863Z,98392.94
2022-12-04T12:25:25.680Z,98399.63
2022-12-04T12:28:03.309Z,98399.75
2022-12-04T12:31:02.492Z,98411.91
2022-12-04T12:33:37.341Z,98415.78
2022-12-04T12:36:09.388Z,98403.31
2022-12-04T12:38:45.350Z,98405.22
2022-12-04T12:41:14.974Z,98408.88
2022-12-04T12:43:45.854Z,98408.72
2022-12-04T12:46:23.379Z,98401.94
2022-12-04T12:49:03.464Z,98411.28
2022-12-04T12:51:57.748Z,98418.00
2022-12-04T12:54:52.795Z,98419.53
2022-12-04T12:57:38.613Z,98418.28
2022-12-04T13:00:14.702Z,98424.09
2022-12-04T13:02:48.162Z,98416.19
2022-12-04T13:05:19.983Z,98419.59
2022-12-04T13:08:23.541Z,98418.94
2022-12-04T13:10:55.698Z,98433.34
2022-12-04T13:13:28.892Z,98427.13
2022-12-04T13:16:10.247Z,98422.78
2022-12-04T13:18:52.344Z,98423.69
2022-12-04T13:21:42.953Z,98423.72
2022-12-04T13:24:42.340Z,98431.19
2022-12-04T13:27:48.305Z,98427.47
2022-12-04T13:30:18.536Z,98423.94
2022-12-04T13:33:07.642Z,98423.44
2022-12-04T13:36:06.934Z,98415.78
2022-12-04T13:38:47.362Z,98430.25
2022-12-04T13:41:20.550Z,98425.91
2022-12-04T13:43:50.180Z,98422.28
2022-12-04T13:46:35.234Z,98427.41
2022-12-04T13:49:19.421Z,98425.28
2022-12-04T13:51:48.804Z,98429.38
2022-12-04T13:54:17.134Z,98431.28
2022-12-04T13:56:51.183Z,98419.94
2022-12-04T13:59:28.755Z,98431.41
2022-12-04T14:02:02.228Z,98419.69
2022-12-04T14:04:41.237Z,98427.97
2022-12-04T14:07:27.599Z,98423.44
2022-12-04T14:09:57.178Z,98417.59
2022-12-04T14:12:37.885Z,98423.28
2022-12-04T14:15:24.230Z,98428.88
2022-12-04T14:18:11.345Z,98425.84
2022-12-04T14:20:41.021Z,98428.34
2022-12-04T14:23:26.841Z,98430.47
2022-12-04T14:25:57.994Z,98430.44
2022-12-04T14:28:26.979Z,98444.06
2022-12-04T14:31:16.835Z,98432.06
2022-12-04T14:33:52.652Z,98437.31
2022-12-04T14:36:25.247Z,98438.97
2022-12-04T14:39:05.110Z,98438.44
2022-12-04T14:41:33.657Z,98435.69
2022-12-04T14:44:02.826Z,98440.66
2022-12-04T14:46:46.519Z,98438.25
2022-12-04T14:49:39.811Z,98418.69
2022-12-04T14:52:15.835Z,98430.13
2022-12-04T14:55:09.010Z,98424.47
2022-12-04T14:58:26.859Z,98422.88
2022-12-04T15:00:55.827Z,98435.59
2022-12-04T15:03:24.539Z,98439.34
2022-12-04T15:06:05.123Z,98433.50
2022-12-04T15:08:33.693Z,98430.78
2022-12-04T15:11:20.703Z,98431.28
2022-12-04T15:13:49.175Z,98429.97
2022-12-04T15:16:19.919Z,98429.50
2022-12-04T15:18:58.552Z,98415.59
2022-12-04T15:21:40.582Z,98423.44
2022-12-04T15:24:27.906Z,98420.88
2022-12-04T15:26:57.319Z,98430.44
2022-12-04T15:29:27.560Z,98424.66
2022-12-04T15:31:58.238Z,98416.72
2022-12-04T15:34:39.174Z,98414.28
2022-12-04T15:37:10.630Z,98422.53
2022-12-04T15:39:39.435Z,98425.41
2022-12-04T15:42:17.563Z,98429.09
2022-12-04T15:44:53.566Z,98430.09
2022-12-04T15:47:24.095Z,98448.53
2022-12-04T15:49:52.796Z,98439.38
2022-12-04T15:52:24.813Z,98451.97
2022-12-04T15:55:07.010Z,98451.91
2022-12-04T15:57:37.383Z,98459.91
2022-12-04T16:00:08.223Z,98456.38
2022-12-04T16:02:40.600Z,98454.16
2022-12-04T16:05:21.674Z,98453.44
2022-12-04T16:07:57.426Z,98462.63
2022-12-04T16:10:30.969Z,98462.31
2022-12-04T16:13:01.638Z,98461.03
2022-12-04T16:15:44.135Z,98472.38
2022-12-04T16:18:14.810Z,98472.69
2022-12-04T16:20:45.173Z,98471.25
2022-12-04T16:23:14.134Z,98483.09
2022-12-04T16:25:42.676Z,98479.38
2022-12-04T16:28:11.508Z,98469.19
2022-12-04T16:30:40.059Z,98472.84
2022-12-04T16:33:12.116Z,98471.75
2022-12-04T16:35:40.816Z,98477.03
2022-12-04T16:38:17.685Z,98471.69
2022-12-04T16:40:49.161Z,98471.56
2022-12-04T16:43:18.103Z,98476.53
2022-12-04T16:45:49.276Z,98470.16
2022-12-04T16:48:17.776Z,98478.06
2022-12-04T16:50:46.569Z,98482.81
2022-12-04T16:53:17.502Z,98478.00
2022-12-04T16:55:48.362Z,98472.88
2022-12-04T16:58:17.389Z,98469.59
2022-12-04T17:00:51.857Z,98467.81
2022-12-04T17:03:29.387Z,98461.44
2022-12-04T17:05:58.618Z,98457.91
2022-12-04T17:08:27.727Z,98455.84
2022-12-04T17:10:57.887Z,98465.28
2022-12-04T17:13:27.622Z,98466.75
2022-12-04T17:15:58.966Z,98471.66
2022-12-04T17:18:28.207Z,98472.00
2022-12-04T17:20:57.348Z,98479.03
2022-12-04T17:23:28.950Z,98469.44
2022-12-04T17:26:06.554Z,98471.09
2022-12-04T17:28:37.582Z,98475.25
2022-12-04T17:31:17.349Z,98480.13
2022-12-04T17:33:48.428Z,98470.63
2022-12-04T17:36:21.040Z,98478.81
2022-12-04T17:38:53.985Z,98477.94
2022-12-04T17:41:22.510Z,98475.94
2022-12-04T17:43:51.863Z,98478.00
2022-12-04T17:46:23.261Z,98474.06
2022-12-04T17:48:52.778Z,98476.69
2022-12-04T17:51:23.179Z,98471.31
2022-12-04T17:53:53.250Z,98475.00
2022-12-04T17:56:24.074Z,98465.78
2022-12-04T17:58:54.146Z,98459.44
2022-12-04T18:01:24.692Z,98468.63
2022-12-04T18:03:55.543Z,98462.34
2022-12-04T18:06:28.728Z,98466.22
2022-12-04T18:08:57.665Z,98461.19
2022-12-04T18:11:29.893Z,98469.63
2022-12-04T18:14:07.134Z,98477.50
2022-12-04T18:16:44.290Z,98484.72
2022-12-04T18:19:14.165Z,98491.63
2022-12-04T18:21:42.761Z,98492.19
2022-12-04T18:24:13.387Z,98484.97
2022-12-04T18:26:47.960Z,98475.41
2022-12-04T18:29:22.207Z,98479.44
2022-12-04T18:31:51.811Z,98477.97
2022-12-04T18:34:21.543Z,98471.56
2022-12-04T18:36:53.259Z,98465.66
2022-12-04T18:39:26.831Z,98474.78
2022-12-04T18:42:00.119Z,98477.84
2022-12-04T18:44:32.302Z,98487.06
2022-12-04T18:47:03.184Z,98481.66
2022-12-04T18:49:35.893Z,98497.00
2022-12-04T18:52:07.433Z,98493.88
2022-12-04T18:54:38.964Z,98500.19
2022-12-04T18:57:10.749Z,98498.22
2022-12-04T18:59:41.371Z,98499.38
2022-12-04T19:02:14.819Z,98516.88
2022-12-04T19:04:48.389Z,98528.22
2022-12-04T19:07:18.964Z,98522.84
2022-12-04T19:12:39.437Z,98510.75
2022-12-04T19:15:08.963Z,98509.81
2022-12-04T19:17:37.908Z,98504.84
2022-12-04T19:20:07.455Z,98515.41
2022-12-04T19:22:39.612Z,98511.91
2022-12-04T19:25:11.252Z,98522.59
2022-12-04T19:27:41.696Z,98514.59
2022-12-04T19:30:11.267Z,98528.69
2022-12-04T19:32:41.953Z,98531.84
2022-12-04T19:35:12.505Z,98526.06
2022-12-04T19:37:42.459Z,98527.97
2022-12-04T19:40:14.205Z,98515.91
2022-12-04T19:42:42.573Z,98523.25
2022-12-04T19:45:11.175Z,98524.22
2022-12-04T19:47:40.436Z,98521.00
2022-12-04T19:50:09.835Z,98527.91
2022-12-04T19:52:39.055Z,98523.25
2022-12-04T19:55:09.810Z,98531.91
2022-12-04T19:57:38.868Z,98526.47
2022-12-04T20:00:11.241Z,98531.75
2022-12-04T20:02:42.979Z,98529.19
2022-12-04T20:05:11.723Z,98533.81
2022-12-04T20:07:40.776Z,98526.63
2022-12-04T20:10:09.683Z,98529.50
2022-12-04T20:12:38.550Z,98524.03
2022-12-04T20:15:07.376Z,98525.81
2022-12-04T20:17:35.824Z,98519.09
2022-12-04T20:20:04.586Z,98519.09
2022-12-04T20:22:35.295Z,98519.59
2022-12-04T20:25:05.297Z,98522.59
2022-12-04T20:27:34.587Z,98513.50
2022-12-04T20:30:03.321Z,98517.88
2022-12-04T20:32:31.864Z,98511.97
2022-12-04T20:35:00.362Z,98513.13
2022-12-04T20:37:28.867Z,98514.06
2022-12-04T20:39:57.403Z,98505.31
2022-12-04T20:42:31.783Z,98504.25
2022-12-04T20:45:03.766Z,98510.91
2022-12-04T20:47:33.690Z,98502.97
2022-12-04T20:50:03.658Z,98494.81
2022-12-04T20:52:32.058Z,98489.34
2022-12-04T20:55:00.923Z,98486.19
2022-12-04T20:57:31.562Z,98484.78
2022-12-04T21:00:00.004Z,98490.19
2022-12-04T21:02:29.264Z,98486.09
2022-12-04T21:04:57.684Z,98475.34
2022-12-04T21:07:26.283Z,98481.75
2022-12-04T21:09:55.571Z,98487.16
2022-12-04T21:12:43.466Z,98484.94
2022-12-04T21:15:31.677Z,98478.53
2022-12-04T21:18:01.805Z,98475.56
2022-12-04T21:20:30.249Z,98486.78
2022-12-04T21:22:58.682Z,98478.75
2022-12-04T21:25:28.027Z,98492.22
2022-12-04T21:27:56.999Z,98487.06
2022-12-04T21:30:25.451Z,98490.91
2022-12-04T21:32:53.890Z,98494.72
2022-12-04T21:35:22.235Z,98485.34
2022-12-04T21:37:50.616Z,98484.53
2022-12-04T21:40:19.029Z,98497.50
2022-12-04T21:42:47.443Z,98498.59
2022-12-04T21:45:15.868Z,98498.91
2022-12-04T21:47:44.256Z,98500.06
2022-12-04T21:50:12.633Z,98511.75
2022-12-04T21:52:41.215Z,98519.25
2022-12-04T21:55:10.260Z,98525.50
2022-12-04T21:57:38.785Z,98526.09
2022-12-04T22:00:07.843Z,98524.66
2022-12-04T22:02:38.257Z,98521.13
2022-12-04T22:05:06.987Z,98527.22
2022-12-04T22:07:35.404Z,98529.63
2022-12-04T22:10:10.053Z,98524.38
2022-12-04T22:12:49.645Z,98522.13
2022-12-04T22:15:19.112Z,98517.81
2022-12-04T22:17:47.455Z,98525.50
2022-12-04T22:20:16.033Z,98518.44
2022-12-04T22:22:44.970Z,98513.66
2022-12-04T22:25:14.713Z,98513.97
2022-12-04T22:27:43.031Z,98514.75
2022-12-04T22:30:12.356Z,98498.31
2022-12-04T22:32:40.693Z,98506.94
2022-12-04T22:35:10.115Z,98500.53
2022-12-04T22:37:42.765Z,98489.47
2022-12-04T22:40:14.180Z,98485.50
2022-12-04T22:42:43.254Z,98478.75
2022-12-04T22:45:12.017Z,98481.66
2022-12-04T22:47:41.047Z,98476.84
2022-12-04T22:50:10.279Z,98479.09
2022-12-04T22:52:39.401Z,98476.03
2022-12-04T22:55:08.147Z,98479.91
2022-12-04T22:57:36.493Z,98465.03
2022-12-04T23:00:05.644Z,98473.34
2022-12-04T23:02:33.989Z,98474.13
2022-12-04T23:05:03.103Z,98469.19
2022-12-04T23:07:31.605Z,98474.59
2022-12-04T23:10:00.113Z,98483.09
2022-12-04T23:12:29.886Z,98473.47
2022-12-04T23:14:58.272Z,98473.63
2022-12-04T23:17:26.527Z,98474.59
2022-12-04T23:19:55.222Z,98473.66
2022-12-04T23:22:23.812Z,98469.50
2022-12-04T23:24:52.090Z,98472.53
2022-12-04T23:27:21.005Z,98478.13
2022-12-04T23:29:53.532Z,98476.06
2022-12-04T23:32:32.930Z,98479.09
2022-12-04T23:35:01.620Z,98476.19
2022-12-04T23:37:29.939Z,98471.38
2022-12-04T23:39:58.504Z,98475.22
2022-12-04T23:42:31.571Z,98470.94
2022-12-04T23:45:00.073Z,98467.41
2022-12-04T23:47:29.213Z,98465.31
2022-12-04T23:49:58.287Z,98466.94
2022-12-04T23:52:27.304Z,98471.09
2022-12-04T23:54:55.794Z,98466.31
2022-12-04T23:57:24.721Z,98471.25
2022-12-04T23:59:53.686Z,98477.50
